Time;durP1;ratioP1;P1;durP2;ratioP2;P2;SDS_P1;SDS_P2;PMS_P1;PMS_P2;Temp;Humidity;BMP_temperature;BMP_pressure;BME280_temperature;BME280_humidity;BME280_pressure;Samples;Min_cycle;Max_cycle;Signal;HPM_P1;HPM_P2
2021/01/03 00:01:45;;;;;;;22.95;11.40;;;4.80;99.90;;;;;;5049733;28;20051;-66
2021/01/03 00:04:12;;;;;;;24.73;11.60;;;4.80;99.90;;;;;;5046571;28;20044;-66
2021/01/03 00:06:38;;;;;;;26.88;11.55;;;4.80;99.90;;;;;;5048584;28;20051;-66
2021/01/03 00:09:06;;;;;;;24.42;11.32;;;4.80;99.90;;;;;;5050084;28;20053;-67
2021/01/03 00:11:32;;;;;;;23.45;11.43;;;4.90;99.90;;;;;;5050955;28;20114;-67
2021/01/03 00:13:58;;;;;;;27.42;11.18;;;4.80;99.90;;;;;;5047467;28;20045;-67
2021/01/03 00:16:26;;;;;;;24.70;10.35;;;4.80;99.90;;;;;;5049045;28;20450;-67
2021/01/03 00:18:52;;;;;;;23.02;10.80;;;4.80;99.90;;;;;;5043540;28;20047;-67
2021/01/03 00:21:20;;;;;;;27.67;12.18;;;4.80;99.90;;;;;;5050329;28;20080;-66
2021/01/03 00:23:46;;;;;;;22.85;10.25;;;4.80;99.90;;;;;;5042301;28;20044;-66
2021/01/03 00:26:13;;;;;;;22.20;10.52;;;4.80;99.90;;;;;;5051086;28;20057;-66
2021/01/03 00:28:39;;;;;;;25.58;11.35;;;4.80;99.90;;;;;;5045839;28;20057;-67
2021/01/03 00:31:06;;;;;;;23.00;11.57;;;4.80;99.90;;;;;;5050719;28;20053;-66
2021/01/03 00:33:32;;;;;;;25.02;10.77;;;4.80;99.90;;;;;;5047361;28;20080;-66
2021/01/03 00:35:59;;;;;;;25.10;10.93;;;4.80;99.90;;;;;;5049840;28;20071;-66
2021/01/03 00:38:25;;;;;;;25.38;10.32;;;4.80;99.90;;;;;;5046707;28;20073;-66
2021/01/03 00:40:52;;;;;;;23.17;10.95;;;4.80;99.90;;;;;;5049620;28;20044;-66
2021/01/03 00:43:18;;;;;;;26.25;11.00;;;4.80;99.90;;;;;;5048320;28;20051;-66
2021/01/03 00:45:45;;;;;;;25.48;10.50;;;4.70;99.90;;;;;;5047564;28;20096;-66
2021/01/03 00:48:12;;;;;;;23.33;10.73;;;4.70;99.90;;;;;;5042188;28;20541;-66
2021/01/03 00:50:38;;;;;;;25.13;10.48;;;4.70;99.90;;;;;;5048793;28;20136;-66
2021/01/03 00:53:05;;;;;;;21.63;9.98;;;4.60;99.90;;;;;;5045796;28;20061;-66
2021/01/03 00:55:31;;;;;;;26.35;10.68;;;4.60;99.90;;;;;;5048776;28;20077;-66
2021/01/03 00:57:58;;;;;;;25.83;11.05;;;4.60;99.90;;;;;;5047999;28;20049;-66
2021/01/03 01:00:30;;;;;;;30.30;11.05;;;4.60;99.90;;;;;;5047645;28;20045;-66
2021/01/03 01:02:58;;;;;;;23.70;9.77;;;4.60;99.90;;;;;;5045303;28;20134;-66
2021/01/03 01:05:26;;;;;;;23.73;10.68;;;4.50;99.90;;;;;;5043274;28;20055;-66
2021/01/03 01:07:53;;;;;;;21.33;9.20;;;4.50;99.90;;;;;;5046282;28;20116;-66
2021/01/03 01:10:27;;;;;;;24.58;9.60;;;4.50;99.90;;;;;;5049324;28;20514;-66
2021/01/03 01:12:56;;;;;;;23.75;8.88;;;4.50;99.90;;;;;;5048403;28;20052;-66
2021/01/03 01:15:25;;;;;;;20.90;9.23;;;4.50;99.90;;;;;;5047998;28;20091;-66
2021/01/03 01:17:54;;;;;;;21.70;8.68;;;4.50;99.90;;;;;;5048759;28;20509;-66
2021/01/03 01:20:24;;;;;;;23.77;10.40;;;4.50;99.90;;;;;;5050070;28;20071;-66
2021/01/03 01:22:50;;;;;;;20.58;9.13;;;4.60;99.90;;;;;;5047713;28;20135;-66
2021/01/03 01:25:20;;;;;;;19.42;8.98;;;4.60;99.90;;;;;;5046828;28;20385;-66
2021/01/03 01:27:47;;;;;;;19.08;8.38;;;4.50;99.90;;;;;;5048688;28;20059;-66
2021/01/03 01:30:14;;;;;;;23.13;8.88;;;4.50;99.90;;;;;;5049639;28;20411;-66
2021/01/03 01:32:41;;;;;;;22.65;8.80;;;4.50;99.90;;;;;;5046242;28;20044;-66
2021/01/03 01:35:11;;;;;;;21.25;9.25;;;4.50;99.90;;;;;;5048142;28;20427;-66
2021/01/03 01:37:38;;;;;;;22.48;9.75;;;4.50;99.90;;;;;;5047351;28;20076;-66
2021/01/03 01:40:07;;;;;;;18.58;8.05;;;4.50;99.90;;;;;;5047268;28;20049;-66
2021/01/03 01:42:33;;;;;;;18.08;8.88;;;4.50;99.90;;;;;;5047957;28;20080;-66
2021/01/03 01:45:00;;;;;;;23.50;9.40;;;4.50;99.90;;;;;;5043734;28;20053;-66
2021/01/03 01:47:38;;;;;;;18.02;8.57;;;4.50;99.90;;;;;;5049873;28;20136;-66
2021/01/03 01:50:08;;;;;;;23.25;9.07;;;4.50;99.90;;;;;;5046427;28;20135;-66
2021/01/03 01:52:44;;;;;;;24.98;9.40;;;4.50;99.90;;;;;;5051150;28;20056;-66
2021/01/03 01:55:19;;;;;;;22.98;9.93;;;4.50;99.90;;;;;;5052086;28;20128;-66
2021/01/03 01:58:17;;;;;;;20.73;9.77;;;4.50;99.90;;;;;;5053027;28;20554;-66
2021/01/03 02:00:51;;;;;;;19.02;8.45;;;4.50;99.90;;;;;;5047458;28;20049;-66
2021/01/03 02:03:25;;;;;;;21.85;9.07;;;4.50;99.90;;;;;;5042029;28;20041;-66
2021/01/03 02:05:59;;;;;;;21.92;9.75;;;4.50;99.90;;;;;;5051655;28;20049;-66
2021/01/03 02:08:39;;;;;;;24.80;9.75;;;4.50;99.90;;;;;;5049220;28;20050;-66
2021/01/03 02:11:10;;;;;;;28.23;9.13;;;4.50;99.90;;;;;;5053976;28;20049;-66
2021/01/03 02:13:47;;;;;;;26.58;9.80;;;4.50;99.90;;;;;;5048486;28;20132;-66
2021/01/03 02:16:17;;;;;;;23.13;9.60;;;4.40;99.90;;;;;;5053612;28;20047;-66
2021/01/03 02:18:45;;;;;;;23.10;9.35;;;4.50;99.90;;;;;;5050531;28;20471;-66
2021/01/03 02:21:42;;;;;;;23.88;9.98;;;4.50;99.90;;;;;;5053339;28;20113;-66
2021/01/03 02:24:20;;;;;;;25.17;9.77;;;4.50;99.90;;;;;;5050434;28;20059;-66
2021/01/03 02:26:54;;;;;;;23.33;10.07;;;4.40;99.90;;;;;;5053735;28;20051;-66
2021/01/03 02:29:22;;;;;;;22.98;9.98;;;4.40;99.90;;;;;;5052326;28;20124;-66
2021/01/03 02:31:54;;;;;;;21.17;9.57;;;4.50;99.90;;;;;;5048576;28;20128;-66
2021/01/03 02:34:33;;;;;;;24.55;9.55;;;4.50;99.90;;;;;;5050063;28;20037;-66
2021/01/03 02:37:05;;;;;;;;;;;4.50;99.90;;;;;;5053446;28;20049;-66
2021/01/03 02:39:50;;;;;;;20.17;8.10;;;4.50;99.90;;;;;;5051028;28;19920;-66
2021/01/03 02:42:31;;;;;;;21.00;8.90;;;4.50;99.90;;;;;;5046765;28;20063;-66
2021/01/03 02:44:59;;;;;;;18.85;8.48;;;4.50;99.90;;;;;;5050295;28;20067;-66
2021/01/03 02:47:31;;;;;;;23.13;8.77;;;4.40;99.90;;;;;;5053597;28;20523;-66
2021/01/03 02:49:57;;;;;;;20.58;9.90;;;4.50;99.90;;;;;;5051558;28;20444;-66
2021/01/03 02:52:31;;;;;;;21.35;9.73;;;4.50;99.90;;;;;;5050717;28;20049;-66
2021/01/03 02:54:57;;;;;;;23.00;10.60;;;4.40;99.90;;;;;;5051403;28;20489;-66
2021/01/03 02:57:24;;;;;;;19.85;9.70;;;4.50;99.90;;;;;;5053140;28;20045;-66
2021/01/03 02:59:50;;;;;;;22.67;10.68;;;4.40;99.90;;;;;;5051093;28;20041;-66
2021/01/03 03:02:17;;;;;;;23.40;9.95;;;4.50;99.90;;;;;;5049338;28;20048;-66
2021/01/03 03:04:44;;;;;;;24.38;10.10;;;4.50;99.90;;;;;;5043914;28;20380;-66
2021/01/03 03:07:10;;;;;;;24.83;10.50;;;4.50;99.90;;;;;;5052557;28;20053;-66
2021/01/03 03:09:37;;;;;;;23.52;10.50;;;4.50;99.90;;;;;;5049015;28;20044;-66
2021/01/03 03:12:05;;;;;;;24.08;10.15;;;4.50;99.90;;;;;;5050379;28;20460;-66
2021/01/03 03:14:31;;;;;;;22.25;10.55;;;4.50;99.90;;;;;;5046820;28;20132;-66
2021/01/03 03:17:00;;;;;;;19.40;9.13;;;4.50;99.90;;;;;;5051309;28;20317;-66
2021/01/03 03:19:26;;;;;;;22.50;9.82;;;4.50;99.90;;;;;;5043782;28;20059;-66
2021/01/03 03:21:53;;;;;;;22.83;9.95;;;4.50;99.90;;;;;;5051861;28;20625;-66
2021/01/03 03:24:20;;;;;;;23.50;9.95;;;4.50;99.90;;;;;;5050006;28;20080;-66
2021/01/03 03:26:54;;;;;;;21.88;9.32;;;4.50;99.90;;;;;;5051960;28;20051;-66
2021/01/03 03:29:21;;;;;;;27.50;10.65;;;4.50;99.90;;;;;;5049720;28;20215;-66
2021/01/03 03:31:49;;;;;;;23.63;9.48;;;4.50;99.90;;;;;;5051475;28;20079;-66
2021/01/03 03:34:17;;;;;;;24.48;10.02;;;4.50;99.90;;;;;;5048695;28;20449;-66
2021/01/03 03:36:44;;;;;;;24.05;9.80;;;4.50;99.90;;;;;;5052819;28;20056;-66
2021/01/03 03:39:11;;;;;;;28.63;11.30;;;4.50;99.90;;;;;;5050255;28;20102;-66
2021/01/03 03:41:38;;;;;;;28.23;11.60;;;4.50;99.90;;;;;;5052387;28;20044;-66
2021/01/03 03:44:06;;;;;;;26.80;11.13;;;4.50;99.90;;;;;;5041485;28;20049;-66
2021/01/03 03:46:32;;;;;;;28.15;11.48;;;4.50;99.90;;;;;;5052635;28;20049;-66
2021/01/03 03:48:59;;;;;;;26.75;12.23;;;4.50;99.90;;;;;;5047654;28;20128;-66
2021/01/03 03:51:26;;;;;;;27.13;10.32;;;4.50;99.90;;;;;;5051971;28;20049;-66
2021/01/03 03:53:53;;;;;;;27.50;9.98;;;4.40;99.90;;;;;;5044131;28;20048;-66
2021/01/03 03:56:20;;;;;;;30.23;10.90;;;4.50;99.90;;;;;;5051772;28;20322;-66
2021/01/03 03:58:46;;;;;;;27.65;11.00;;;4.50;99.90;;;;;;5050420;28;20037;-66
2021/01/03 04:01:13;;;;;;;25.52;10.85;;;4.50;99.90;;;;;;5045917;28;20412;-66
2021/01/03 04:03:39;;;;;;;25.15;10.27;;;4.50;99.90;;;;;;5046678;28;20055;-66
2021/01/03 04:06:06;;;;;;;23.63;10.15;;;4.40;99.90;;;;;;5044743;28;20085;-66
2021/01/03 04:08:36;;;;;;;26.35;10.23;;;4.40;99.90;;;;;;5045963;28;20408;-66
2021/01/03 04:11:03;;;;;;;23.55;9.80;;;4.40;99.90;;;;;;5051144;28;20454;-66
2021/01/03 04:13:29;;;;;;;25.63;10.40;;;4.40;99.90;;;;;;5044420;28;20548;-66
2021/01/03 04:15:55;;;;;;;23.63;9.32;;;4.40;99.90;;;;;;5050020;28;20052;-66
2021/01/03 04:18:22;;;;;;;20.83;8.75;;;4.40;99.90;;;;;;5046533;28;20076;-66
2021/01/03 04:20:49;;;;;;;23.75;10.35;;;4.40;99.90;;;;;;5041038;28;20055;-66
2021/01/03 04:23:15;;;;;;;20.58;9.80;;;4.40;99.90;;;;;;5049708;28;20049;-66
2021/01/03 04:25:41;;;;;;;21.42;9.38;;;4.40;99.90;;;;;;5052064;28;20048;-66
2021/01/03 04:28:07;;;;;;;19.95;8.40;;;4.40;99.90;;;;;;5049297;28;20084;-66
2021/01/03 04:30:34;;;;;;;18.25;7.65;;;4.40;99.90;;;;;;5050177;28;20060;-66
2021/01/03 04:33:00;;;;;;;21.58;8.70;;;4.40;99.90;;;;;;5050054;28;20480;-66
2021/01/03 04:35:26;;;;;;;22.90;8.57;;;4.30;99.90;;;;;;5050925;28;20107;-66
2021/01/03 04:37:54;;;;;;;18.40;8.07;;;4.30;99.90;;;;;;5050308;28;20079;-66
2021/01/03 04:40:24;;;;;;;20.92;8.75;;;4.30;99.90;;;;;;5046946;28;20041;-66
2021/01/03 04:43:03;;;;;;;22.15;9.55;;;4.30;99.90;;;;;;5049818;28;20131;-66
2021/01/03 04:45:38;;;;;;;25.35;9.23;;;4.30;99.90;;;;;;5047413;28;20095;-66
2021/01/03 04:48:08;;;;;;;18.90;8.65;;;4.30;99.90;;;;;;5046455;28;20175;-66
2021/01/03 04:50:38;;;;;;;21.42;8.43;;;4.30;99.90;;;;;;5046945;28;20057;-66
2021/01/03 04:53:23;;;;;;;20.67;9.02;;;4.30;99.90;;;;;;5045394;28;20057;-66
2021/01/03 04:56:16;;;;;;;21.70;8.70;;;4.30;99.90;;;;;;5050199;28;20128;-66
2021/01/03 04:58:45;;;;;;;23.10;9.57;;;4.30;99.90;;;;;;5040384;28;20124;-66
2021/01/03 05:01:33;;;;;;;23.08;9.18;;;4.30;99.90;;;;;;5045457;28;20049;-66
2021/01/03 05:04:35;;;;;;;20.35;8.77;;;4.30;99.90;;;;;;5044636;28;20041;-66
2021/01/03 05:07:13;;;;;;;19.77;7.88;;;4.30;99.90;;;;;;5047131;28;20041;-66
2021/01/03 05:09:41;;;;;;;20.08;8.50;;;4.30;99.90;;;;;;5045203;28;20115;-66
2021/01/03 05:12:31;;;;;;;21.40;8.27;;;4.30;99.90;;;;;;5049906;28;20041;-66
2021/01/03 05:15:03;;;;;;;20.55;8.32;;;4.30;99.90;;;;;;5046227;28;20072;-66
2021/01/03 05:17:30;;;;;;;25.10;9.15;;;4.30;99.90;;;;;;5050438;28;20129;-66
2021/01/03 05:19:56;;;;;;;25.10;9.25;;;4.30;99.90;;;;;;5046552;28;20532;-66
2021/01/03 05:22:32;;;;;;;21.52;9.55;;;4.30;99.90;;;;;;5049415;28;20045;-66
2021/01/03 05:25:01;;;;;;;21.25;8.80;;;4.30;99.90;;;;;;5044400;28;20461;-66
2021/01/03 05:27:29;;;;;;;21.05;8.85;;;4.30;99.90;;;;;;5051830;28;20088;-66
2021/01/03 05:30:20;;;;;;;20.50;8.50;;;4.30;99.90;;;;;;5045669;28;20111;-66
2021/01/03 05:32:47;;;;;;;21.70;9.75;;;4.30;99.90;;;;;;5048051;28;20132;-66
2021/01/03 05:35:37;;;;;;;22.90;8.75;;;4.20;99.90;;;;;;5049676;28;20068;-66
2021/01/03 05:38:06;;;;;;;20.80;7.93;;;4.20;99.90;;;;;;5047153;28;20127;-66
2021/01/03 05:40:42;;;;;;;18.13;7.78;;;4.20;99.90;;;;;;5049259;28;20045;-66
2021/01/03 05:43:21;;;;;;;24.75;9.32;;;4.20;99.90;;;;;;5046927;28;20049;-66
2021/01/03 05:45:50;;;;;;;;;;;4.20;99.90;;;;;;5050480;28;20045;-67
2021/01/03 05:48:24;;;;;;;;;;;4.20;99.90;;;;;;5048832;28;20279;-67
2021/01/03 05:50:50;;;;;;;18.77;7.25;;;4.20;99.90;;;;;;5041290;28;20063;-67
2021/01/03 05:53:18;;;;;;;19.63;7.40;;;4.10;99.90;;;;;;5033598;28;20130;-66
2021/01/03 05:56:12;;;;;;;18.55;9.07;;;4.20;99.90;;;;;;5047397;28;20037;-66
2021/01/03 05:58:44;;;;;;;18.33;7.78;;;4.10;99.90;;;;;;5044543;28;20047;-66
2021/01/03 06:01:26;;;;;;;25.90;9.48;;;4.10;99.90;;;;;;5051258;28;20052;-66
2021/01/03 06:04:19;;;;;;;21.08;8.43;;;4.10;99.90;;;;;;5045748;28;20045;-66
2021/01/03 06:06:53;;;;;;;22.85;9.60;;;4.10;99.90;;;;;;5048650;28;20448;-66
2021/01/03 06:09:31;;;;;;;22.88;10.48;;;4.10;99.90;;;;;;5039406;28;20717;-66
2021/01/03 06:12:04;;;;;;;29.97;11.87;;;4.10;99.90;;;;;;5047881;28;20136;-66
2021/01/03 06:14:30;;;;;;;24.42;9.15;;;4.10;99.90;;;;;;5045207;28;20063;-66
2021/01/03 06:17:16;;;;;;;27.42;10.27;;;4.00;99.90;;;;;;5050130;28;20129;-66
2021/01/03 06:19:51;;;;;;;26.50;10.38;;;4.00;99.90;;;;;;5046364;28;20202;-66
2021/01/03 06:22:36;;;;;;;26.13;11.95;;;4.00;99.90;;;;;;5045759;28;20040;-66
2021/01/03 06:25:29;;;;;;;27.45;11.05;;;4.00;99.90;;;;;;5047808;28;20059;-66
2021/01/03 06:28:04;;;;;;;26.95;9.77;;;4.00;99.90;;;;;;5047444;28;20064;-66
2021/01/03 06:30:33;;;;;;;25.70;10.43;;;4.00;99.90;;;;;;5049256;28;20055;-66
2021/01/03 06:33:16;;;;;;;27.05;11.32;;;4.00;99.90;;;;;;5047161;28;20068;-66
2021/01/03 06:35:49;;;;;;;25.23;10.25;;;4.00;99.90;;;;;;5047737;28;20087;-66
2021/01/03 06:38:42;;;;;;;26.77;10.23;;;4.00;99.90;;;;;;5051712;28;20154;-66
2021/01/03 06:41:11;;;;;;;28.63;10.93;;;4.00;99.90;;;;;;5050566;28;20154;-66
2021/01/03 06:43:58;;;;;;;;;;;4.00;99.90;;;;;;5051759;28;20120;-66
2021/01/03 06:46:47;;;;;;;19.20;8.90;;;4.00;99.90;;;;;;5049548;28;19927;-65
2021/01/03 06:49:13;;;;;;;;;;;3.90;99.90;;;;;;5052850;28;20041;-66
2021/01/03 06:52:06;;;;;;;21.38;9.30;;;3.90;99.90;;;;;;5052751;28;19932;-66
2021/01/03 06:54:57;;;;;;;22.98;10.02;;;3.90;99.90;;;;;;5044976;28;20092;-66
2021/01/03 06:57:26;;;;;;;20.38;9.23;;;4.00;99.90;;;;;;5053099;28;20464;-66
2021/01/03 07:00:04;;;;;;;;;;;4.00;99.90;;;;;;5046906;28;20041;-66
2021/01/03 07:02:32;;;;;;;21.00;8.32;;;4.00;99.90;;;;;;5051895;28;19929;-66
2021/01/03 07:05:09;;;;;;;23.75;9.50;;;4.00;99.90;;;;;;5046663;28;20506;-66
2021/01/03 07:07:38;;;;;;;23.63;10.13;;;4.00;99.90;;;;;;5052802;28;20040;-67
2021/01/03 07:10:36;;;;;;;27.42;10.23;;;4.00;99.90;;;;;;5049408;28;20072;-67
2021/01/03 07:13:24;;;;;;;20.88;8.57;;;4.00;99.90;;;;;;5049309;28;20107;-67
2021/01/03 07:15:50;;;;;;;25.55;9.52;;;4.00;99.90;;;;;;5050828;28;20500;-67
2021/01/03 07:18:52;;;;;;;23.13;9.23;;;4.00;99.90;;;;;;5047864;28;20473;-67
2021/01/03 07:21:32;;;;;;;23.15;9.13;;;4.00;99.90;;;;;;5042943;28;20107;-67
2021/01/03 07:24:30;;;;;;;23.52;9.43;;;4.00;99.90;;;;;;5051468;28;20063;-67
2021/01/03 07:27:15;;;;;;;21.08;8.57;;;4.00;99.90;;;;;;5049247;28;20488;-67
2021/01/03 07:30:00;;;;;;;21.88;8.77;;;4.00;99.90;;;;;;5044105;28;20049;-67
2021/01/03 07:32:32;;;;;;;26.13;10.65;;;4.00;99.90;;;;;;5046430;28;20048;-67
2021/01/03 07:35:02;;;;;;;20.98;9.70;;;4.00;99.90;;;;;;5051291;28;20045;-67
2021/01/03 07:37:31;;;;;;;25.65;10.27;;;4.00;99.90;;;;;;5049635;28;20389;-66
2021/01/03 07:40:00;;;;;;;23.63;9.70;;;4.00;99.90;;;;;;5049984;28;20049;-66
2021/01/03 07:42:30;;;;;;;24.38;10.13;;;4.00;99.90;;;;;;5057149;28;20127;-66
2021/01/03 07:45:12;;;;;;;25.17;10.27;;;4.00;99.90;;;;;;5042637;28;20087;-66
2021/01/03 07:47:42;;;;;;;26.05;9.77;;;4.00;99.90;;;;;;5049465;28;20052;-66
2021/01/03 07:50:30;;;;;;;23.95;10.02;;;4.00;99.90;;;;;;5046632;28;20053;-66
2021/01/03 07:53:37;;;;;;;22.15;10.32;;;4.00;99.90;;;;;;5048857;28;20484;-66
2021/01/03 07:56:22;;;;;;;20.95;9.15;;;4.00;99.90;;;;;;5047504;28;20041;-67
2021/01/03 07:58:58;;;;;;;20.77;9.70;;;4.00;99.90;;;;;;5047924;28;20051;-67
2021/01/03 08:01:32;;;;;;;25.02;10.43;;;3.90;99.90;;;;;;5051025;28;20051;-67
2021/01/03 08:04:29;;;;;;;23.85;11.18;;;3.90;99.90;;;;;;5045953;28;20053;-67
2021/01/03 08:07:17;;;;;;;24.67;10.05;;;3.90;99.90;;;;;;5047807;28;20472;-67
2021/01/03 08:09:43;;;;;;;26.33;11.52;;;3.90;99.90;;;;;;5045936;28;20055;-67
2021/01/03 08:12:31;;;;;;;23.40;9.55;;;3.90;99.90;;;;;;5050496;28;20144;-67
2021/01/03 08:15:18;;;;;;;;;;;3.90;99.90;;;;;;5048571;28;20154;-67
2021/01/03 08:17:45;;;;;;;22.45;9.50;;;3.90;99.90;;;;;;5065115;28;19928;-66
2021/01/03 08:20:23;;;;;;;25.95;10.18;;;3.90;99.90;;;;;;5051051;28;20045;-66
2021/01/03 08:22:50;;;;;;;25.92;9.95;;;3.90;99.90;;;;;;5043241;28;20072;-66
2021/01/03 08:25:24;;;;;;;27.17;11.38;;;3.90;99.90;;;;;;5051972;28;20071;-66
2021/01/03 08:28:03;;;;;;;26.95;11.23;;;3.90;99.90;;;;;;5047763;28;20049;-66
2021/01/03 08:30:33;;;;;;;25.52;9.35;;;3.90;99.90;;;;;;5050644;28;20040;-66
2021/01/03 08:33:27;;;;;;;27.55;11.73;;;3.90;99.90;;;;;;5040744;28;20451;-66
2021/01/03 08:35:53;;;;;;;26.75;10.98;;;3.90;99.90;;;;;;5045075;28;20402;-66
2021/01/03 08:38:27;;;;;;;26.33;10.25;;;4.00;99.90;;;;;;5043155;28;20055;-66
2021/01/03 08:41:04;;;;;;;26.05;11.07;;;3.90;99.90;;;;;;5046575;28;20123;-66
2021/01/03 08:43:31;;;;;;;28.85;11.90;;;4.00;99.90;;;;;;5045717;28;20067;-66
2021/01/03 08:46:03;;;;;;;26.90;11.20;;;4.00;99.90;;;;;;5051687;28;20129;-66
2021/01/03 08:48:31;;;;;;;33.40;11.23;;;4.00;99.90;;;;;;5048404;28;20140;-66
2021/01/03 08:51:09;;;;;;;29.17;12.10;;;4.00;99.90;;;;;;5051580;28;20045;-66
2021/01/03 08:53:37;;;;;;;28.23;12.00;;;4.00;99.90;;;;;;5046570;28;20091;-66
2021/01/03 08:56:14;;;;;;;26.35;11.30;;;4.00;99.90;;;;;;5051447;28;20052;-66
2021/01/03 08:58:41;;;;;;;26.10;11.05;;;4.00;99.90;;;;;;5045897;28;20055;-67
2021/01/03 09:05:01;;;;;;;26.10;11.40;;;4.00;99.90;;;;;;5034020;28;20072;-67
2021/01/03 09:07:50;;;;;;;25.67;10.35;;;4.10;99.90;;;;;;4981962;28;20089;-66
2021/01/03 09:10:39;;;;;;;25.25;10.93;;;4.10;99.90;;;;;;4986391;28;20050;-67
2021/01/03 09:13:14;;;;;;;26.90;11.93;;;4.10;99.90;;;;;;4988133;28;20054;-66
2021/01/03 09:15:44;;;;;;;25.38;11.23;;;4.10;99.90;;;;;;4978461;28;20050;-66
2021/01/03 09:18:25;;;;;;;24.73;12.20;;;4.10;99.90;;;;;;4969987;28;20098;-67
2021/01/03 09:21:01;;;;;;;28.02;12.07;;;4.20;99.90;;;;;;4977847;28;20100;-67
2021/01/03 09:23:30;;;;;;;25.20;12.05;;;4.20;99.90;;;;;;4976538;28;20157;-66
2021/01/03 11:33:07;;;;;;;10.65;4.85;;;4.40;99.90;;;;;;5063084;28;20669;-66
2021/01/03 11:35:34;;;;;;;10.30;5.63;;;4.40;99.90;;;;;;5083838;28;20135;-66
2021/01/03 11:38:00;;;;;;;11.18;5.80;;;4.40;99.90;;;;;;5088890;28;20044;-67
2021/01/03 11:40:26;;;;;;;9.88;5.05;;;4.40;99.90;;;;;;5080782;28;20075;-68
2021/01/03 11:42:52;;;;;;;10.13;5.28;;;4.40;99.90;;;;;;5085810;28;20075;-67
2021/01/03 11:45:21;;;;;;;11.23;4.85;;;4.40;99.90;;;;;;5086439;28;20040;-66
2021/01/03 11:47:48;;;;;;;11.00;4.82;;;4.40;99.90;;;;;;5088914;28;20402;-67
2021/01/03 11:50:19;;;;;;;10.27;4.83;;;4.40;99.90;;;;;;5090192;28;20139;-67
2021/01/03 11:52:45;;;;;;;12.18;5.03;;;4.40;99.90;;;;;;5084298;28;20052;-66
2021/01/03 11:55:14;;;;;;;11.63;5.75;;;4.40;99.90;;;;;;5087018;28;20590;-67
2021/01/03 11:57:40;;;;;;;12.07;6.15;;;4.40;99.90;;;;;;5084853;28;20085;-67
2021/01/03 12:00:10;;;;;;;13.40;6.15;;;4.40;99.90;;;;;;5086752;28;20040;-67
2021/01/03 12:02:39;;;;;;;11.50;5.93;;;4.40;99.90;;;;;;5088125;28;20261;-67
2021/01/03 12:05:07;;;;;;;11.13;5.18;;;4.40;99.90;;;;;;5087683;28;20100;-66
2021/01/03 12:07:33;;;;;;;11.70;5.88;;;4.40;99.90;;;;;;5087990;28;20040;-68
2021/01/03 12:10:00;;;;;;;11.73;5.90;;;4.40;99.90;;;;;;5089331;28;20043;-66
2021/01/03 12:12:26;;;;;;;11.18;5.88;;;4.40;99.90;;;;;;5088162;28;20036;-66
2021/01/03 12:14:52;;;;;;;12.23;6.15;;;4.40;99.90;;;;;;5082457;28;20139;-66
2021/01/03 12:17:21;;;;;;;13.23;6.53;;;4.40;99.90;;;;;;5090240;28;20150;-67
2021/01/03 12:19:49;;;;;;;11.60;5.68;;;4.40;99.90;;;;;;5091029;28;20043;-66
2021/01/03 12:22:19;;;;;;;15.35;6.50;;;4.40;99.90;;;;;;5088749;28;20085;-66
2021/01/03 12:24:46;;;;;;;12.63;5.63;;;4.40;99.90;;;;;;5084899;28;20036;-67
2021/01/03 12:27:16;;;;;;;13.82;6.03;;;4.40;99.90;;;;;;5088703;28;20150;-66
2021/01/03 12:29:42;;;;;;;11.85;6.05;;;4.50;99.90;;;;;;5090130;28;20071;-67
2021/01/03 12:32:11;;;;;;;12.48;6.18;;;4.50;99.90;;;;;;5107682;28;20134;-67
2021/01/03 12:34:37;;;;;;;11.67;5.83;;;4.50;99.90;;;;;;5098680;28;20055;-66
2021/01/03 12:37:14;;;;;;;13.52;5.68;;;4.50;99.90;;;;;;5108471;28;20336;-67
2021/01/03 12:39:42;;;;;;;12.18;5.40;;;4.50;99.90;;;;;;5098383;28;20040;-67
2021/01/03 12:42:13;;;;;;;12.82;6.10;;;4.60;99.90;;;;;;5095363;28;20036;-66
2021/01/03 12:44:40;;;;;;;14.63;7.22;;;4.60;99.90;;;;;;5086651;28;20043;-67
2021/01/03 12:47:07;;;;;;;12.77;6.15;;;4.60;99.90;;;;;;5086882;28;20052;-66
2021/01/03 12:49:34;;;;;;;13.30;5.75;;;4.60;99.90;;;;;;5098168;28;20371;-67
2021/01/03 12:52:00;;;;;;;11.15;5.40;;;4.70;99.90;;;;;;5094527;28;20051;-67
2021/01/03 12:54:27;;;;;;;12.25;5.45;;;4.70;99.90;;;;;;5091839;28;20059;-66
2021/01/03 12:56:53;;;;;;;11.77;5.95;;;4.70;99.90;;;;;;5084586;28;20165;-66
2021/01/03 12:59:20;;;;;;;12.25;6.13;;;4.70;99.90;;;;;;5095958;28;20459;-66
2021/01/03 13:01:47;;;;;;;12.93;5.90;;;4.70;99.90;;;;;;5094582;28;20088;-65
2021/01/03 13:04:20;;;;;;;10.52;5.88;;;4.70;99.90;;;;;;5091220;28;20044;-67
2021/01/03 13:06:47;;;;;;;13.00;6.00;;;4.70;99.90;;;;;;5091688;28;20060;-66
2021/01/03 13:09:17;;;;;;;11.88;5.90;;;4.60;99.90;;;;;;5092977;28;20441;-66
2021/01/03 13:11:44;;;;;;;11.98;4.93;;;4.70;99.90;;;;;;5098381;28;20074;-67
2021/01/03 13:14:13;;;;;;;11.70;5.47;;;4.70;99.90;;;;;;5091939;28;20090;-67
2021/01/03 13:16:39;;;;;;;11.52;5.60;;;4.70;99.90;;;;;;5106373;28;20048;-68
2021/01/03 13:19:07;;;;;;;11.40;5.80;;;4.70;99.90;;;;;;5091678;28;20044;-68
2021/01/03 13:21:35;;;;;;;13.30;5.68;;;4.70;99.90;;;;;;5095638;28;20083;-67
2021/01/03 13:24:02;;;;;;;11.95;5.50;;;4.90;99.90;;;;;;5089276;28;20056;-67
2021/01/03 13:26:28;;;;;;;11.63;6.20;;;5.10;99.90;;;;;;5105456;28;20043;-66
2021/01/03 13:28:55;;;;;;;11.75;6.30;;;5.20;99.90;;;;;;5083712;28;20127;-66
2021/01/03 13:31:24;;;;;;;13.02;6.45;;;5.20;99.90;;;;;;5086095;28;20480;-67
2021/01/03 13:33:53;;;;;;;15.35;6.85;;;5.20;99.90;;;;;;5087552;28;20051;-68
2021/01/03 13:36:22;;;;;;;14.25;7.13;;;5.20;99.90;;;;;;5089185;28;20040;-67
2021/01/03 13:38:49;;;;;;;14.48;6.57;;;5.20;99.90;;;;;;5086917;28;20048;-67
2021/01/03 13:41:17;;;;;;;13.48;6.45;;;5.20;99.90;;;;;;5071834;28;20464;-67
2021/01/03 13:43:44;;;;;;;14.77;6.65;;;5.20;99.90;;;;;;5086267;28;20118;-67
2021/01/03 13:46:14;;;;;;;15.48;6.95;;;5.10;99.90;;;;;;5093438;28;20052;-66
2021/01/03 13:48:40;;;;;;;15.10;7.45;;;5.10;99.90;;;;;;5084236;28;20047;-68
2021/01/03 13:51:09;;;;;;;16.75;7.18;;;5.10;99.90;;;;;;5091670;28;20831;-68
2021/01/03 13:53:35;;;;;;;15.13;6.53;;;5.10;99.90;;;;;;5088522;28;20518;-66
2021/01/03 13:56:01;;;;;;;16.38;7.38;;;5.10;99.90;;;;;;5088970;28;20447;-67
2021/01/03 13:58:28;;;;;;;13.55;6.63;;;5.10;99.90;;;;;;5071924;28;20080;-66
2021/01/03 14:00:55;;;;;;;16.83;7.82;;;5.00;99.90;;;;;;5076533;28;21077;-66
2021/01/03 14:03:21;;;;;;;17.80;6.93;;;5.00;99.90;;;;;;5075429;28;20920;-66
2021/01/03 14:05:49;;;;;;;14.02;6.75;;;5.00;99.90;;;;;;5086572;28;20067;-67
2021/01/03 14:08:16;;;;;;;15.73;7.03;;;4.90;99.90;;;;;;5074545;28;20395;-67
2021/01/03 14:10:43;;;;;;;14.55;7.93;;;4.90;99.90;;;;;;5073606;28;20056;-67
2021/01/03 14:13:15;;;;;;;13.93;7.05;;;4.90;99.90;;;;;;5067021;28;20048;-67
2021/01/03 14:15:44;;;;;;;17.45;7.75;;;4.90;99.90;;;;;;5075715;28;20483;-66
2021/01/03 14:18:11;;;;;;;12.50;6.45;;;4.80;99.90;;;;;;5070940;28;20048;-66
2021/01/03 14:20:38;;;;;;;15.38;7.30;;;4.80;99.90;;;;;;5073429;28;20452;-67
2021/01/03 14:23:04;;;;;;;12.95;6.55;;;4.80;99.90;;;;;;5073537;28;20044;-66
2021/01/03 14:25:31;;;;;;;15.43;7.38;;;4.80;99.90;;;;;;5098812;27;20396;-66
2021/01/03 14:27:58;;;;;;;14.55;7.13;;;4.80;99.90;;;;;;5069532;28;20048;-68
2021/01/03 14:30:27;;;;;;;13.20;6.68;;;4.70;99.90;;;;;;5098536;27;20436;-66
2021/01/03 14:33:08;;;;;;;14.70;7.43;;;4.70;99.90;;;;;;5075231;28;20055;-66
2021/01/03 14:35:42;;;;;;;13.80;7.88;;;4.70;99.90;;;;;;5068984;28;20056;-66
2021/01/03 14:38:15;;;;;;;12.63;6.25;;;4.70;99.90;;;;;;5067102;28;20399;-66
2021/01/03 14:40:43;;;;;;;12.60;5.95;;;4.70;99.90;;;;;;5071308;28;20048;-66
2021/01/03 14:43:10;;;;;;;14.70;6.55;;;4.70;99.90;;;;;;5072967;28;20047;-66
2021/01/03 14:45:52;;;;;;;15.85;7.28;;;4.70;99.90;;;;;;5087198;28;20065;-65
2021/01/03 14:48:32;;;;;;;12.77;6.20;;;4.70;99.90;;;;;;5072069;28;20135;-67
2021/01/03 14:51:28;;;;;;;13.32;6.47;;;4.70;99.90;;;;;;5088865;28;20417;-67
2021/01/03 14:53:58;;;;;;;14.23;6.22;;;4.70;99.90;;;;;;5067731;28;20085;-66
2021/01/03 14:56:47;;;;;;;12.48;5.50;;;4.70;99.90;;;;;;5074627;28;20047;-66
2021/01/03 14:59:13;;;;;;;11.55;5.75;;;4.70;99.90;;;;;;5071201;28;20051;-66
2021/01/03 15:01:43;;;;;;;13.85;6.57;;;4.70;99.90;;;;;;5067726;28;20125;-66
2021/01/03 15:04:25;;;;;;;13.30;6.47;;;4.70;99.90;;;;;;5068693;28;20094;-67
2021/01/03 15:07:04;;;;;;;10.27;5.25;;;4.60;99.90;;;;;;5074924;28;20052;-66
2021/01/03 15:09:34;;;;;;;11.65;6.20;;;4.60;99.90;;;;;;5079354;28;20048;-67
2021/01/03 15:12:04;;;;;;;12.23;6.03;;;4.60;99.90;;;;;;5069937;28;20317;-67
2021/01/03 15:14:30;;;;;;;14.20;6.20;;;4.60;99.90;;;;;;5064400;28;20127;-66
2021/01/03 15:17:12;;;;;;;11.20;6.20;;;4.60;99.90;;;;;;5073602;28;20086;-66
2021/01/03 15:19:52;;;;;;;13.38;5.60;;;4.50;99.90;;;;;;5099850;27;20041;-66
2021/01/03 15:22:26;;;;;;;12.15;5.55;;;4.50;99.90;;;;;;5070318;28;20066;-66